TAM3674 SBBR-SBCY
Flight info
| Callsign | TAM3674 |
|---|---|
| Flight time | 1h 21m |
| Altitude | 36000 |
| Route | SIREM DCT LODOV DCT MABMA DCT SINIP |
| Aircraft | A321/M-SDE3FGHIRWY/LB1 |
Departure
| Time | 2026-05-08 18:07 |
|---|---|
| Airport | Presidente Juscelino Kubitschek International Airport (SBBR) |
Arrival
| Time | 2026-05-08 19:28 |
|---|---|
| Airport | Várzea Grande–Marechal Rondon International Airport (SBCY) |
| Time | Latitude | Longitude | Altitude | Speed | Heading |
|---|---|---|---|---|---|
| 2026-05-08 17:52 | -15.87123 | -47.91738 | 3474 ft | 0 kts | 236° |
| 2026-05-08 17:58 | -15.87112 | -47.91721 | 3474 ft | 3 kts | 236° |
| 2026-05-08 17:58 | -15.87101 | -47.91705 | 3476 ft | 3 kts | 236° |
| 2026-05-08 17:58 | -15.87091 | -47.91689 | 3473 ft | 3 kts | 222° |
| 2026-05-08 17:58 | -15.87086 | -47.91682 | 3473 ft | 2 kts | 187° |
| 2026-05-08 17:59 | -15.87103 | -47.91682 | 3476 ft | 2 kts | 177° |
| 2026-05-08 17:59 | -15.87108 | -47.91681 | 3476 ft | 0 kts | 176° |
| 2026-05-08 18:00 | -15.87182 | -47.91677 | 3473 ft | 10 kts | 176° |
| 2026-05-08 18:00 | -15.87265 | -47.91670 | 3476 ft | 14 kts | 176° |
| 2026-05-08 18:01 | -15.87381 | -47.91664 | 3469 ft | 19 kts | 174° |
| 2026-05-08 18:01 | -15.87478 | -47.91658 | 3468 ft | 14 kts | 176° |
| 2026-05-08 18:01 | -15.87568 | -47.91652 | 3466 ft | 11 kts | 175° |
| 2026-05-08 18:01 | -15.87659 | -47.91645 | 3462 ft | 15 kts | 176° |
| 2026-05-08 18:02 | -15.87740 | -47.91691 | 3440 ft | 15 kts | 266° |
| 2026-05-08 18:02 | -15.87743 | -47.91764 | 3462 ft | 16 kts | 267° |
| 2026-05-08 18:02 | -15.87753 | -47.91916 | 3463 ft | 16 kts | 266° |
| 2026-05-08 18:02 | -15.87760 | -47.92032 | 3464 ft | 16 kts | 266° |
| 2026-05-08 18:03 | -15.87768 | -47.92150 | 3466 ft | 16 kts | 266° |
| 2026-05-08 18:03 | -15.87775 | -47.92263 | 3469 ft | 15 kts | 266° |
| 2026-05-08 18:03 | -15.87782 | -47.92372 | 3471 ft | 15 kts | 266° |
| 2026-05-08 18:03 | -15.87789 | -47.92485 | 3471 ft | 16 kts | 266° |
| 2026-05-08 18:04 | -15.87797 | -47.92598 | 3472 ft | 16 kts | 266° |
| 2026-05-08 18:04 | -15.87804 | -47.92712 | 3473 ft | 16 kts | 266° |
| 2026-05-08 18:04 | -15.87812 | -47.92827 | 3475 ft | 16 kts | 266° |
| 2026-05-08 18:04 | -15.87819 | -47.92945 | 3473 ft | 17 kts | 266° |
| 2026-05-08 18:05 | -15.87827 | -47.93070 | 3476 ft | 18 kts | 266° |
| 2026-05-08 18:05 | -15.87835 | -47.93192 | 3476 ft | 16 kts | 266° |
| 2026-05-08 18:05 | -15.87842 | -47.93299 | 3484 ft | 14 kts | 266° |
| 2026-05-08 18:05 | -15.87886 | -47.93374 | 3485 ft | 13 kts | 197° |
| 2026-05-08 18:06 | -15.87961 | -47.93320 | 3481 ft | 18 kts | 122° |
| 2026-05-08 18:06 | -15.88010 | -47.93101 | 3477 ft | 57 kts | 87° |
| 2026-05-08 18:06 | -15.87966 | -47.92439 | 3473 ft | 124 kts | 86° |
| 2026-05-08 18:06 | -15.87891 | -47.91333 | 3486 ft | 177 kts | 86° |
| 2026-05-08 18:07 | -15.87988 | -47.90034 | 4133 ft | 186 kts | 112° |
| 2026-05-08 18:07 | -15.88912 | -47.89104 | 4488 ft | 206 kts | 159° |
| 2026-05-08 18:07 | -15.90401 | -47.88814 | 4683 ft | 229 kts | 170° |
| 2026-05-08 18:07 | -15.92047 | -47.88554 | 4807 ft | 251 kts | 168° |
| 2026-05-08 18:08 | -15.93847 | -47.88207 | 4973 ft | 274 kts | 167° |
| 2026-05-08 18:08 | -15.95745 | -47.87769 | 5428 ft | 284 kts | 165° |
| 2026-05-08 18:08 | -15.97657 | -47.87264 | 6137 ft | 284 kts | 163° |
| 2026-05-08 18:08 | -15.99582 | -47.86712 | 6801 ft | 288 kts | 162° |
| 2026-05-08 18:09 | -16.01515 | -47.86128 | 7388 ft | 292 kts | 162° |
| 2026-05-08 18:09 | -16.03496 | -47.85606 | 7969 ft | 297 kts | 174° |
| 2026-05-08 18:09 | -16.05523 | -47.85953 | 8531 ft | 300 kts | 207° |
| 2026-05-08 18:09 | -16.07088 | -47.87345 | 9153 ft | 298 kts | 239° |
| 2026-05-08 18:10 | -16.07775 | -47.89339 | 9812 ft | 295 kts | 263° |
| 2026-05-08 18:10 | -16.07964 | -47.91474 | 10265 ft | 304 kts | 270° |
| 2026-05-08 18:10 | -16.07978 | -47.93742 | 10390 ft | 324 kts | 272° |
| 2026-05-08 18:10 | -16.07962 | -47.96150 | 10636 ft | 339 kts | 269° |
| 2026-05-08 18:11 | -16.08285 | -47.98600 | 11106 ft | 346 kts | 256° |
| 2026-05-08 18:11 | -16.09196 | -48.00935 | 11602 ft | 353 kts | 243° |
| 2026-05-08 18:11 | -16.10397 | -48.03224 | 11813 ft | 367 kts | 242° |
| 2026-05-08 18:11 | -16.11652 | -48.05561 | 12248 ft | 372 kts | 242° |
| 2026-05-08 18:12 | -16.12926 | -48.07924 | 12734 ft | 376 kts | 242° |
| 2026-05-08 18:12 | -16.14208 | -48.10318 | 13225 ft | 380 kts | 242° |
| 2026-05-08 18:12 | -16.15492 | -48.12738 | 13719 ft | 384 kts | 242° |
| 2026-05-08 18:12 | -16.16778 | -48.15181 | 14178 ft | 386 kts | 242° |
| 2026-05-08 18:13 | -16.18072 | -48.17644 | 14598 ft | 389 kts | 242° |
| 2026-05-08 18:13 | -16.19375 | -48.20124 | 14995 ft | 393 kts | 242° |
| 2026-05-08 18:13 | -16.20689 | -48.22628 | 15440 ft | 395 kts | 242° |
| 2026-05-08 18:13 | -16.22007 | -48.25144 | 15883 ft | 397 kts | 242° |
| 2026-05-08 18:14 | -16.23333 | -48.27675 | 16300 ft | 400 kts | 241° |
| 2026-05-08 18:14 | -16.24883 | -48.30085 | 16695 ft | 403 kts | 231° |
| 2026-05-08 18:14 | -16.26734 | -48.32230 | 17122 ft | 404 kts | 227° |
| 2026-05-08 18:14 | -16.28634 | -48.34386 | 17548 ft | 406 kts | 227° |
| 2026-05-08 18:15 | -16.30544 | -48.36563 | 17934 ft | 408 kts | 227° |
| 2026-05-08 18:15 | -16.32462 | -48.38755 | 18314 ft | 410 kts | 227° |
| 2026-05-08 18:15 | -16.34386 | -48.40962 | 18646 ft | 412 kts | 227° |
| 2026-05-08 18:15 | -16.36313 | -48.43176 | 18975 ft | 414 kts | 227° |
| 2026-05-08 18:16 | -16.38251 | -48.45401 | 19307 ft | 416 kts | 228° |
| 2026-05-08 18:16 | -16.40200 | -48.47633 | 19650 ft | 417 kts | 228° |
| 2026-05-08 18:16 | -16.41495 | -48.49117 | 19868 ft | 418 kts | 228° |
| 2026-05-08 18:16 | -16.43455 | -48.51364 | 20200 ft | 420 kts | 228° |
| 2026-05-08 18:17 | -16.44784 | -48.52889 | 20409 ft | 421 kts | 228° |
| 2026-05-08 18:17 | -16.49460 | -48.58248 | 21145 ft | 425 kts | 228° |
| 2026-05-08 18:17 | -16.51452 | -48.60533 | 21455 ft | 427 kts | 229° |
| 2026-05-08 18:18 | -16.53450 | -48.62829 | 21762 ft | 428 kts | 229° |
| 2026-05-08 18:18 | -16.55263 | -48.65295 | 22057 ft | 429 kts | 238° |
| 2026-05-08 18:18 | -16.56691 | -48.68026 | 22372 ft | 429 kts | 244° |
| 2026-05-08 18:18 | -16.58043 | -48.70804 | 22721 ft | 430 kts | 244° |
| 2026-05-08 18:19 | -16.59401 | -48.73586 | 23022 ft | 432 kts | 244° |
| 2026-05-08 18:19 | -16.60770 | -48.76382 | 23322 ft | 434 kts | 244° |
| 2026-05-08 18:19 | -16.62145 | -48.79190 | 23613 ft | 435 kts | 244° |
| 2026-05-08 18:19 | -16.63519 | -48.82001 | 23862 ft | 437 kts | 244° |
| 2026-05-08 18:20 | -16.64900 | -48.84828 | 24097 ft | 438 kts | 244° |
| 2026-05-08 18:20 | -16.66269 | -48.87630 | 24367 ft | 439 kts | 244° |
| 2026-05-08 18:20 | -16.67652 | -48.90461 | 24648 ft | 440 kts | 244° |
| 2026-05-08 18:20 | -16.69042 | -48.93307 | 24903 ft | 441 kts | 244° |
| 2026-05-08 18:21 | -16.70438 | -48.96160 | 25171 ft | 442 kts | 244° |
| 2026-05-08 18:21 | -16.71835 | -48.99018 | 25468 ft | 443 kts | 244° |
| 2026-05-08 18:21 | -16.73235 | -49.01883 | 25733 ft | 444 kts | 244° |
| 2026-05-08 18:21 | -16.74637 | -49.04756 | 25990 ft | 445 kts | 244° |
| 2026-05-08 18:22 | -16.76040 | -49.07640 | 26275 ft | 446 kts | 244° |
| 2026-05-08 18:22 | -16.77449 | -49.10533 | 26536 ft | 448 kts | 244° |
| 2026-05-08 18:22 | -16.78858 | -49.13429 | 26793 ft | 449 kts | 244° |
| 2026-05-08 18:22 | -16.80271 | -49.16341 | 27041 ft | 450 kts | 244° |
| 2026-05-08 18:23 | -16.81688 | -49.19261 | 27298 ft | 452 kts | 244° |
| 2026-05-08 18:23 | -16.83113 | -49.22190 | 27551 ft | 453 kts | 244° |
| 2026-05-08 18:23 | -16.84541 | -49.25125 | 27804 ft | 454 kts | 244° |
| 2026-05-08 18:23 | -16.85969 | -49.28068 | 28039 ft | 455 kts | 244° |
| 2026-05-08 18:24 | -16.87400 | -49.31020 | 28273 ft | 456 kts | 244° |
| 2026-05-08 18:24 | -16.88834 | -49.33977 | 28491 ft | 457 kts | 244° |
| 2026-05-08 18:24 | -16.90271 | -49.36934 | 28742 ft | 457 kts | 244° |
| 2026-05-08 18:24 | -16.91708 | -49.39890 | 28971 ft | 457 kts | 244° |
| 2026-05-08 18:25 | -16.93146 | -49.42850 | 29183 ft | 458 kts | 244° |
| 2026-05-08 18:25 | -16.94588 | -49.45820 | 29374 ft | 459 kts | 244° |
| 2026-05-08 18:25 | -16.96027 | -49.48791 | 29633 ft | 458 kts | 244° |
| 2026-05-08 18:25 | -16.97444 | -49.51721 | 29931 ft | 457 kts | 244° |
| 2026-05-08 18:26 | -16.98871 | -49.54672 | 30199 ft | 455 kts | 244° |
| 2026-05-08 18:26 | -17.00293 | -49.57615 | 30475 ft | 453 kts | 244° |
| 2026-05-08 18:26 | -17.01709 | -49.60548 | 30723 ft | 451 kts | 245° |
| 2026-05-08 18:26 | -17.03120 | -49.63474 | 30965 ft | 450 kts | 245° |
| 2026-05-08 18:27 | -17.04527 | -49.66392 | 31202 ft | 450 kts | 245° |
| 2026-05-08 18:27 | -17.05460 | -49.68326 | 31356 ft | 449 kts | 245° |
| 2026-05-08 18:27 | -17.07340 | -49.72219 | 31680 ft | 448 kts | 245° |
| 2026-05-08 18:27 | -17.08744 | -49.75124 | 31931 ft | 447 kts | 245° |
| 2026-05-08 18:28 | -17.10143 | -49.78024 | 32183 ft | 446 kts | 245° |
| 2026-05-08 18:28 | -17.11534 | -49.80914 | 32443 ft | 444 kts | 245° |
| 2026-05-08 18:28 | -17.12919 | -49.83798 | 32692 ft | 443 kts | 245° |
| 2026-05-08 18:28 | -17.14303 | -49.86676 | 32923 ft | 443 kts | 245° |
| 2026-05-08 18:29 | -17.15687 | -49.89550 | 33160 ft | 442 kts | 245° |
| 2026-05-08 18:29 | -17.17066 | -49.92414 | 33398 ft | 441 kts | 246° |
| 2026-05-08 18:29 | -17.18444 | -49.95278 | 33636 ft | 440 kts | 246° |
| 2026-05-08 18:29 | -17.19594 | -49.98227 | 33867 ft | 436 kts | 256° |
| 2026-05-08 18:30 | -17.20243 | -50.01301 | 34100 ft | 432 kts | 264° |
| 2026-05-08 18:30 | -17.20399 | -50.04423 | 34311 ft | 429 kts | 273° |
| 2026-05-08 18:30 | -17.20083 | -50.07475 | 34498 ft | 428 kts | 279° |
| 2026-05-08 18:30 | -17.19598 | -50.10544 | 34693 ft | 427 kts | 279° |
| 2026-05-08 18:31 | -17.19119 | -50.13597 | 34896 ft | 425 kts | 279° |
| 2026-05-08 18:31 | -17.18644 | -50.16646 | 35106 ft | 424 kts | 279° |
| 2026-05-08 18:31 | -17.18173 | -50.19685 | 35319 ft | 423 kts | 279° |
| 2026-05-08 18:31 | -17.17707 | -50.22715 | 35553 ft | 421 kts | 278° |
| 2026-05-08 18:32 | -17.17242 | -50.25732 | 35785 ft | 419 kts | 279° |
| 2026-05-08 18:32 | -17.16771 | -50.28738 | 35906 ft | 419 kts | 279° |
| 2026-05-08 18:32 | -17.15824 | -50.34777 | 35928 ft | 423 kts | 278° |
| 2026-05-08 18:33 | -17.14881 | -50.40850 | 35932 ft | 423 kts | 278° |
| 2026-05-08 18:33 | -17.13933 | -50.46924 | 35931 ft | 424 kts | 279° |
| 2026-05-08 18:34 | -17.12976 | -50.53014 | 35937 ft | 425 kts | 279° |
| 2026-05-08 18:34 | -17.12018 | -50.59115 | 35941 ft | 425 kts | 279° |
| 2026-05-08 18:35 | -17.11063 | -50.65185 | 35957 ft | 426 kts | 279° |
| 2026-05-08 18:35 | -17.10097 | -50.71294 | 35967 ft | 426 kts | 279° |
| 2026-05-08 18:36 | -17.09133 | -50.77388 | 35968 ft | 425 kts | 279° |
| 2026-05-08 18:36 | -17.08171 | -50.83486 | 35968 ft | 425 kts | 279° |
| 2026-05-08 18:37 | -17.07204 | -50.89580 | 35978 ft | 425 kts | 279° |
| 2026-05-08 18:37 | -17.06237 | -50.95672 | 35976 ft | 425 kts | 279° |
| 2026-05-08 18:38 | -17.05263 | -51.01757 | 35978 ft | 424 kts | 279° |
| 2026-05-08 18:38 | -17.04286 | -51.07841 | 35976 ft | 424 kts | 279° |
| 2026-05-08 18:39 | -17.03314 | -51.13922 | 35975 ft | 425 kts | 279° |
| 2026-05-08 18:39 | -17.02337 | -51.20007 | 35963 ft | 425 kts | 279° |
| 2026-05-08 18:40 | -17.01360 | -51.26102 | 35965 ft | 426 kts | 279° |
| 2026-05-08 18:40 | -17.00375 | -51.32204 | 35965 ft | 426 kts | 279° |
| 2026-05-08 18:41 | -16.99395 | -51.38305 | 35976 ft | 426 kts | 279° |
| 2026-05-08 18:41 | -16.98420 | -51.44369 | 35978 ft | 426 kts | 279° |
| 2026-05-08 18:42 | -16.97440 | -51.50466 | 35972 ft | 425 kts | 279° |
| 2026-05-08 18:42 | -16.96447 | -51.56556 | 35974 ft | 425 kts | 279° |
| 2026-05-08 18:43 | -16.95450 | -51.62639 | 35969 ft | 425 kts | 279° |
| 2026-05-08 18:43 | -16.94459 | -51.68722 | 35972 ft | 425 kts | 279° |
| 2026-05-08 18:44 | -16.93471 | -51.74801 | 35970 ft | 425 kts | 279° |
| 2026-05-08 18:44 | -16.92481 | -51.80884 | 35971 ft | 425 kts | 279° |
| 2026-05-08 18:45 | -16.91487 | -51.86965 | 35957 ft | 425 kts | 279° |
| 2026-05-08 18:45 | -16.90485 | -51.93050 | 35959 ft | 425 kts | 279° |
| 2026-05-08 18:46 | -16.89474 | -51.99139 | 35960 ft | 426 kts | 279° |
| 2026-05-08 18:46 | -16.88467 | -52.05234 | 35964 ft | 426 kts | 279° |
| 2026-05-08 18:47 | -16.87469 | -52.11331 | 35962 ft | 426 kts | 279° |
| 2026-05-08 18:47 | -16.86466 | -52.17427 | 35961 ft | 426 kts | 279° |
| 2026-05-08 18:48 | -16.85456 | -52.23521 | 35957 ft | 426 kts | 279° |
| 2026-05-08 18:48 | -16.84451 | -52.29573 | 35954 ft | 426 kts | 279° |
| 2026-05-08 18:49 | -16.83439 | -52.35663 | 35955 ft | 426 kts | 279° |
| 2026-05-08 18:49 | -16.82430 | -52.41747 | 35946 ft | 426 kts | 279° |
| 2026-05-08 18:50 | -16.81413 | -52.47835 | 35946 ft | 426 kts | 279° |
| 2026-05-08 18:50 | -16.80390 | -52.53922 | 35946 ft | 426 kts | 279° |
| 2026-05-08 18:51 | -16.79366 | -52.60008 | 35936 ft | 426 kts | 279° |
| 2026-05-08 18:51 | -16.78351 | -52.66098 | 35936 ft | 426 kts | 279° |
| 2026-05-08 18:52 | -16.77332 | -52.72194 | 35938 ft | 427 kts | 279° |
| 2026-05-08 18:52 | -16.76299 | -52.78291 | 35942 ft | 427 kts | 279° |
| 2026-05-08 18:53 | -16.75269 | -52.84339 | 35941 ft | 427 kts | 279° |
| 2026-05-08 18:53 | -16.74237 | -52.90439 | 35941 ft | 427 kts | 279° |
| 2026-05-08 18:54 | -16.73208 | -52.96541 | 35944 ft | 427 kts | 279° |
| 2026-05-08 18:54 | -16.72180 | -53.02646 | 35949 ft | 427 kts | 279° |
| 2026-05-08 18:55 | -16.70777 | -53.11821 | 35951 ft | 426 kts | 275° |
| 2026-05-08 18:56 | -16.70293 | -53.17977 | 35947 ft | 426 kts | 274° |
| 2026-05-08 18:56 | -16.69819 | -53.24138 | 35946 ft | 426 kts | 274° |
| 2026-05-08 18:57 | -16.69344 | -53.30297 | 35952 ft | 426 kts | 274° |
| 2026-05-08 18:57 | -16.68857 | -53.36449 | 35952 ft | 426 kts | 275° |
| 2026-05-08 18:58 | -16.68366 | -53.42601 | 35938 ft | 426 kts | 274° |
| 2026-05-08 18:58 | -16.67887 | -53.48716 | 35937 ft | 426 kts | 274° |
| 2026-05-08 18:59 | -16.67399 | -53.54886 | 35935 ft | 427 kts | 274° |
| 2026-05-08 18:59 | -16.66901 | -53.61059 | 35937 ft | 427 kts | 275° |
| 2026-05-08 19:00 | -16.66476 | -53.66231 | 35939 ft | 428 kts | 275° |
| 2026-05-08 19:00 | -16.65894 | -53.73412 | 35943 ft | 428 kts | 274° |
| 2026-05-08 19:01 | -16.65402 | -53.79591 | 35946 ft | 427 kts | 274° |
| 2026-05-08 19:01 | -16.64901 | -53.85766 | 35939 ft | 427 kts | 274° |
| 2026-05-08 19:02 | -16.64399 | -53.91936 | 35938 ft | 427 kts | 274° |
| 2026-05-08 19:02 | -16.63897 | -53.98099 | 35933 ft | 427 kts | 275° |
| 2026-05-08 19:03 | -16.63387 | -54.04268 | 35933 ft | 427 kts | 275° |
| 2026-05-08 19:03 | -16.62875 | -54.10441 | 35928 ft | 427 kts | 275° |
| 2026-05-08 19:04 | -16.62359 | -54.16611 | 35923 ft | 427 kts | 275° |
| 2026-05-08 19:04 | -16.61845 | -54.22787 | 35920 ft | 427 kts | 275° |
| 2026-05-08 19:05 | -16.61338 | -54.28920 | 35913 ft | 427 kts | 275° |
| 2026-05-08 19:05 | -16.60818 | -54.35093 | 35911 ft | 427 kts | 275° |
| 2026-05-08 19:06 | -16.60305 | -54.41266 | 35905 ft | 428 kts | 275° |
| 2026-05-08 19:06 | -16.59788 | -54.47446 | 35907 ft | 428 kts | 275° |
| 2026-05-08 19:07 | -16.59262 | -54.53633 | 35904 ft | 428 kts | 275° |
| 2026-05-08 19:07 | -16.58732 | -54.59816 | 35906 ft | 429 kts | 275° |
| 2026-05-08 19:08 | -16.57383 | -54.65852 | 35907 ft | 431 kts | 292° |
| 2026-05-08 19:08 | -16.54603 | -54.71398 | 35779 ft | 431 kts | 296° |
| 2026-05-08 19:08 | -16.53183 | -54.74152 | 34984 ft | 434 kts | 296° |
| 2026-05-08 19:09 | -16.51758 | -54.76936 | 34138 ft | 437 kts | 296° |
| 2026-05-08 19:09 | -16.50325 | -54.79738 | 33275 ft | 439 kts | 296° |
| 2026-05-08 19:09 | -16.49373 | -54.81596 | 32757 ft | 438 kts | 297° |
| 2026-05-08 19:09 | -16.47450 | -54.85338 | 31698 ft | 438 kts | 297° |
| 2026-05-08 19:10 | -16.46010 | -54.88143 | 30865 ft | 440 kts | 297° |
| 2026-05-08 19:10 | -16.45055 | -54.90006 | 30273 ft | 442 kts | 297° |
| 2026-05-08 19:10 | -16.43603 | -54.92843 | 29304 ft | 445 kts | 297° |
| 2026-05-08 19:10 | -16.42143 | -54.95689 | 28364 ft | 446 kts | 297° |
| 2026-05-08 19:11 | -16.40677 | -54.98542 | 27423 ft | 447 kts | 298° |
| 2026-05-08 19:11 | -16.39204 | -55.01408 | 26418 ft | 451 kts | 298° |
| 2026-05-08 19:11 | -16.37722 | -55.04297 | 25330 ft | 455 kts | 298° |
| 2026-05-08 19:11 | -16.36226 | -55.07208 | 24518 ft | 454 kts | 298° |
| 2026-05-08 19:12 | -16.34744 | -55.10089 | 23813 ft | 450 kts | 298° |
| 2026-05-08 19:12 | -16.33269 | -55.12951 | 22997 ft | 447 kts | 298° |
| 2026-05-08 19:12 | -16.31809 | -55.15788 | 22267 ft | 441 kts | 298° |
| 2026-05-08 19:12 | -16.30368 | -55.18585 | 21541 ft | 436 kts | 298° |
| 2026-05-08 19:13 | -16.28943 | -55.21345 | 20840 ft | 430 kts | 298° |
| 2026-05-08 19:13 | -16.27537 | -55.24067 | 20147 ft | 424 kts | 298° |
| 2026-05-08 19:13 | -16.26168 | -55.26716 | 19472 ft | 420 kts | 298° |
| 2026-05-08 19:13 | -16.24793 | -55.29377 | 18765 ft | 416 kts | 298° |
| 2026-05-08 19:14 | -16.23430 | -55.32020 | 18009 ft | 413 kts | 298° |
| 2026-05-08 19:14 | -16.22076 | -55.34642 | 17272 ft | 409 kts | 298° |
| 2026-05-08 19:14 | -16.20749 | -55.37214 | 16739 ft | 399 kts | 298° |
| 2026-05-08 19:14 | -16.19442 | -55.39745 | 16091 ft | 395 kts | 298° |
| 2026-05-08 19:15 | -16.18152 | -55.42242 | 15488 ft | 389 kts | 298° |
| 2026-05-08 19:15 | -16.16880 | -55.44708 | 14894 ft | 384 kts | 298° |
| 2026-05-08 19:15 | -16.15623 | -55.47142 | 14303 ft | 380 kts | 299° |
| 2026-05-08 19:15 | -16.14380 | -55.49547 | 13724 ft | 375 kts | 299° |
| 2026-05-08 19:16 | -16.13152 | -55.51922 | 13087 ft | 370 kts | 299° |
| 2026-05-08 19:16 | -16.11939 | -55.54261 | 12489 ft | 365 kts | 299° |
| 2026-05-08 19:16 | -16.10736 | -55.56575 | 11883 ft | 363 kts | 299° |
| 2026-05-08 19:16 | -16.09540 | -55.58873 | 11291 ft | 359 kts | 299° |
| 2026-05-08 19:17 | -16.08381 | -55.61107 | 11120 ft | 342 kts | 298° |
| 2026-05-08 19:17 | -16.07284 | -55.63226 | 11002 ft | 325 kts | 298° |
| 2026-05-08 19:17 | -16.06236 | -55.65250 | 10881 ft | 311 kts | 298° |
| 2026-05-08 19:17 | -16.05232 | -55.67183 | 10742 ft | 298 kts | 298° |
| 2026-05-08 19:18 | -16.04259 | -55.69055 | 10528 ft | 290 kts | 298° |
| 2026-05-08 19:18 | -16.03304 | -55.70896 | 10462 ft | 290 kts | 298° |
| 2026-05-08 19:18 | -16.02347 | -55.72740 | 10394 ft | 289 kts | 298° |
| 2026-05-08 19:18 | -16.01394 | -55.74577 | 10287 ft | 288 kts | 298° |
| 2026-05-08 19:19 | -16.00447 | -55.76401 | 10158 ft | 287 kts | 298° |
| 2026-05-08 19:19 | -15.99511 | -55.78202 | 10045 ft | 287 kts | 298° |
| 2026-05-08 19:19 | -15.98550 | -55.80051 | 9640 ft | 291 kts | 298° |
| 2026-05-08 19:19 | -15.97597 | -55.81886 | 9183 ft | 290 kts | 298° |
| 2026-05-08 19:20 | -15.96654 | -55.83703 | 8819 ft | 279 kts | 299° |
| 2026-05-08 19:20 | -15.96046 | -55.84875 | 8733 ft | 266 kts | 299° |
| 2026-05-08 19:20 | -15.94905 | -55.87064 | 8263 ft | 256 kts | 300° |
| 2026-05-08 19:20 | -15.94060 | -55.88685 | 7838 ft | 255 kts | 300° |
| 2026-05-08 19:21 | -15.93222 | -55.90294 | 7368 ft | 253 kts | 300° |
| 2026-05-08 19:21 | -15.92386 | -55.91896 | 6893 ft | 251 kts | 301° |
| 2026-05-08 19:21 | -15.91555 | -55.93486 | 6424 ft | 250 kts | 301° |
| 2026-05-08 19:21 | -15.90729 | -55.95071 | 5941 ft | 249 kts | 301° |
| 2026-05-08 19:22 | -15.89911 | -55.96644 | 5454 ft | 247 kts | 301° |
| 2026-05-08 19:22 | -15.89081 | -55.98186 | 5025 ft | 239 kts | 307° |
| 2026-05-08 19:22 | -15.87997 | -55.99419 | 4777 ft | 224 kts | 324° |
| 2026-05-08 19:22 | -15.86731 | -56.00252 | 4534 ft | 208 kts | 333° |
| 2026-05-08 19:23 | -15.85489 | -56.00924 | 4301 ft | 195 kts | 334° |
| 2026-05-08 19:23 | -15.84309 | -56.01551 | 4065 ft | 186 kts | 334° |
| 2026-05-08 19:23 | -15.83170 | -56.02156 | 3919 ft | 182 kts | 334° |
| 2026-05-08 19:23 | -15.82061 | -56.02746 | 3813 ft | 181 kts | 333° |
| 2026-05-08 19:24 | -15.80941 | -56.03342 | 3622 ft | 181 kts | 333° |
| 2026-05-08 19:24 | -15.79822 | -56.03938 | 3404 ft | 181 kts | 333° |
| 2026-05-08 19:24 | -15.78706 | -56.04532 | 3186 ft | 180 kts | 333° |
| 2026-05-08 19:24 | -15.77591 | -56.05126 | 2957 ft | 180 kts | 333° |
| 2026-05-08 19:25 | -15.76484 | -56.05715 | 2726 ft | 176 kts | 333° |
| 2026-05-08 19:25 | -15.75414 | -56.06285 | 2513 ft | 171 kts | 334° |
| 2026-05-08 19:25 | -15.74392 | -56.06829 | 2305 ft | 159 kts | 334° |
| 2026-05-08 19:25 | -15.73446 | -56.07333 | 2108 ft | 146 kts | 333° |
| 2026-05-08 19:26 | -15.72568 | -56.07800 | 1922 ft | 140 kts | 333° |
| 2026-05-08 19:26 | -15.71706 | -56.08258 | 1751 ft | 138 kts | 333° |
| 2026-05-08 19:26 | -15.70852 | -56.08712 | 1580 ft | 138 kts | 333° |
| 2026-05-08 19:26 | -15.70002 | -56.09164 | 1411 ft | 137 kts | 333° |
| 2026-05-08 19:27 | -15.69150 | -56.09618 | 1249 ft | 139 kts | 335° |
| 2026-05-08 19:27 | -15.68294 | -56.10073 | 1083 ft | 137 kts | 335° |
| 2026-05-08 19:27 | -15.67447 | -56.10523 | 896 ft | 136 kts | 335° |
| 2026-05-08 19:27 | -15.66601 | -56.10964 | 715 ft | 138 kts | 331° |
| 2026-05-08 19:28 | -15.65757 | -56.11422 | 603 ft | 129 kts | 332° |
| 2026-05-08 19:28 | -15.65152 | -56.11745 | 613 ft | 38 kts | 333° |
| 2026-05-08 19:28 | -15.65053 | -56.11814 | 608 ft | 7 kts | 275° |
| 2026-05-08 19:28 | -15.65070 | -56.11853 | 608 ft | 4 kts | 240° |
| 2026-05-08 19:29 | -15.65088 | -56.11888 | 608 ft | 6 kts | 247° |
| 2026-05-08 19:29 | -15.65065 | -56.11920 | 618 ft | 6 kts | 331° |
| 2026-05-08 19:29 | -15.65022 | -56.11944 | 605 ft | 8 kts | 332° |
| 2026-05-08 19:29 | -15.64967 | -56.11973 | 608 ft | 10 kts | 334° |
| 2026-05-08 19:30 | -15.64901 | -56.12007 | 608 ft | 11 kts | 334° |
| 2026-05-08 19:30 | -15.64874 | -56.12031 | 608 ft | 2 kts | 276° |
| 2026-05-08 19:30 | -15.64881 | -56.12051 | 608 ft | 4 kts | 244° |
| 2026-05-08 19:30 | -15.64889 | -56.12066 | 617 ft | 1 kts | 243° |
| 2026-05-08 19:31 | -15.64890 | -56.12068 | 616 ft | 0 kts | 243° |
| 2026-05-08 19:37 | -15.64890 | -56.12067 | 616 ft | 0 kts | 243° |
| 2026-05-08 19:38 | -15.64889 | -56.12067 | 616 ft | 0 kts | 243° |